sensor_id;sensor_type;location;lat;lon;timestamp;P1;durP1;ratioP1;P2;durP2;ratioP2
17596;SDS011;8917;50.942;6.946;2023-12-20T00:00:34;5.20;;;4.80;;
17596;SDS011;8917;50.942;6.946;2023-12-20T00:03:02;5.40;;;4.90;;
17596;SDS011;8917;50.942;6.946;2023-12-20T00:05:29;4.70;;;4.30;;
17596;SDS011;8917;50.942;6.946;2023-12-20T00:07:59;4.70;;;4.30;;
17596;SDS011;8917;50.942;6.946;2023-12-20T00:10:25;4.80;;;4.40;;
17596;SDS011;8917;50.942;6.946;2023-12-20T00:12:52;5.27;;;4.87;;
17596;SDS011;8917;50.942;6.946;2023-12-20T00:15:19;4.67;;;4.27;;
17596;SDS011;8917;50.942;6.946;2023-12-20T00:17:46;4.73;;;4.33;;
17596;SDS011;8917;50.942;6.946;2023-12-20T00:20:13;4.80;;;4.40;;
17596;SDS011;8917;50.942;6.946;2023-12-20T00:22:40;4.43;;;4.03;;
17596;SDS011;8917;50.942;6.946;2023-12-20T00:25:08;4.17;;;3.87;;
17596;SDS011;8917;50.942;6.946;2023-12-20T00:27:35;4.00;;;3.70;;
17596;SDS011;8917;50.942;6.946;2023-12-20T00:30:02;4.50;;;4.10;;
17596;SDS011;8917;50.942;6.946;2023-12-20T00:32:29;4.50;;;4.10;;
17596;SDS011;8917;50.942;6.946;2023-12-20T00:34:56;4.00;;;3.70;;
17596;SDS011;8917;50.942;6.946;2023-12-20T00:37:23;4.30;;;3.90;;
17596;SDS011;8917;50.942;6.946;2023-12-20T00:39:50;4.20;;;3.80;;
17596;SDS011;8917;50.942;6.946;2023-12-20T00:42:18;3.77;;;3.33;;
17596;SDS011;8917;50.942;6.946;2023-12-20T00:44:45;3.77;;;3.37;;
17596;SDS011;8917;50.942;6.946;2023-12-20T00:47:12;3.50;;;3.20;;
17596;SDS011;8917;50.942;6.946;2023-12-20T00:49:39;5.47;;;3.20;;
17596;SDS011;8917;50.942;6.946;2023-12-20T00:52:06;3.97;;;2.73;;
17596;SDS011;8917;50.942;6.946;2023-12-20T00:54:33;3.00;;;2.80;;
17596;SDS011;8917;50.942;6.946;2023-12-20T00:57:00;3.50;;;3.17;;
17596;SDS011;8917;50.942;6.946;2023-12-20T00:59:28;3.70;;;3.03;;
17596;SDS011;8917;50.942;6.946;2023-12-20T01:01:55;3.20;;;3.00;;
17596;SDS011;8917;50.942;6.946;2023-12-20T01:04:21;3.30;;;3.00;;
17596;SDS011;8917;50.942;6.946;2023-12-20T01:06:48;4.20;;;3.60;;
17596;SDS011;8917;50.942;6.946;2023-12-20T01:09:15;3.87;;;2.87;;
17596;SDS011;8917;50.942;6.946;2023-12-20T01:11:43;4.50;;;2.97;;
17596;SDS011;8917;50.942;6.946;2023-12-20T01:14:11;3.17;;;2.87;;
17596;SDS011;8917;50.942;6.946;2023-12-20T01:16:39;3.63;;;3.33;;
17596;SDS011;8917;50.942;6.946;2023-12-20T01:19:06;4.77;;;3.37;;
17596;SDS011;8917;50.942;6.946;2023-12-20T01:21:33;4.47;;;3.23;;
17596;SDS011;8917;50.942;6.946;2023-12-20T01:24:00;4.00;;;3.60;;
17596;SDS011;8917;50.942;6.946;2023-12-20T01:26:27;6.87;;;3.50;;
17596;SDS011;8917;50.942;6.946;2023-12-20T01:28:54;5.47;;;3.80;;
17596;SDS011;8917;50.942;6.946;2023-12-20T01:31:21;7.03;;;3.87;;
17596;SDS011;8917;50.942;6.946;2023-12-20T01:33:49;6.70;;;3.77;;
17596;SDS011;8917;50.942;6.946;2023-12-20T01:36:16;5.67;;;4.10;;
17596;SDS011;8917;50.942;6.946;2023-12-20T01:38:43;5.63;;;4.10;;
17596;SDS011;8917;50.942;6.946;2023-12-20T01:41:10;8.53;;;4.73;;
17596;SDS011;8917;50.942;6.946;2023-12-20T01:43:37;8.10;;;4.57;;
17596;SDS011;8917;50.942;6.946;2023-12-20T01:46:04;7.53;;;5.10;;
17596;SDS011;8917;50.942;6.946;2023-12-20T01:48:31;7.20;;;4.80;;
17596;SDS011;8917;50.942;6.946;2023-12-20T01:51:00;6.60;;;4.87;;
17596;SDS011;8917;50.942;6.946;2023-12-20T01:53:28;6.30;;;4.90;;
17596;SDS011;8917;50.942;6.946;2023-12-20T01:55:56;6.30;;;5.00;;
17596;SDS011;8917;50.942;6.946;2023-12-20T01:58:24;6.83;;;5.43;;
17596;SDS011;8917;50.942;6.946;2023-12-20T02:00:52;8.27;;;6.17;;
17596;SDS011;8917;50.942;6.946;2023-12-20T02:03:20;10.03;;;5.87;;
17596;SDS011;8917;50.942;6.946;2023-12-20T02:05:47;8.87;;;5.27;;
17596;SDS011;8917;50.942;6.946;2023-12-20T02:08:16;10.10;;;5.70;;
17596;SDS011;8917;50.942;6.946;2023-12-20T02:10:42;8.83;;;4.67;;
17596;SDS011;8917;50.942;6.946;2023-12-20T02:13:10;8.23;;;4.50;;
17596;SDS011;8917;50.942;6.946;2023-12-20T02:15:36;9.50;;;4.80;;
17596;SDS011;8917;50.942;6.946;2023-12-20T02:18:04;7.50;;;4.73;;
17596;SDS011;8917;50.942;6.946;2023-12-20T02:20:31;9.43;;;4.20;;
17596;SDS011;8917;50.942;6.946;2023-12-20T02:22:59;7.70;;;4.40;;
17596;SDS011;8917;50.942;6.946;2023-12-20T02:25:26;10.17;;;4.50;;
17596;SDS011;8917;50.942;6.946;2023-12-20T02:27:53;9.33;;;4.63;;
17596;SDS011;8917;50.942;6.946;2023-12-20T02:30:20;6.03;;;3.70;;
17596;SDS011;8917;50.942;6.946;2023-12-20T02:32:47;9.60;;;3.53;;
17596;SDS011;8917;50.942;6.946;2023-12-20T02:35:15;7.33;;;3.40;;
17596;SDS011;8917;50.942;6.946;2023-12-20T02:37:42;6.63;;;2.97;;
17596;SDS011;8917;50.942;6.946;2023-12-20T02:40:10;10.97;;;3.50;;
17596;SDS011;8917;50.942;6.946;2023-12-20T02:42:37;7.47;;;3.13;;
17596;SDS011;8917;50.942;6.946;2023-12-20T02:45:04;7.90;;;4.00;;
17596;SDS011;8917;50.942;6.946;2023-12-20T02:47:32;9.93;;;3.27;;
17596;SDS011;8917;50.942;6.946;2023-12-20T02:49:59;9.27;;;3.20;;
17596;SDS011;8917;50.942;6.946;2023-12-20T02:52:27;11.23;;;3.23;;
17596;SDS011;8917;50.942;6.946;2023-12-20T02:54:55;9.10;;;3.60;;
17596;SDS011;8917;50.942;6.946;2023-12-20T02:57:23;9.80;;;2.60;;
17596;SDS011;8917;50.942;6.946;2023-12-20T02:59:50;10.73;;;2.90;;
17596;SDS011;8917;50.942;6.946;2023-12-20T03:02:16;6.40;;;2.30;;
17596;SDS011;8917;50.942;6.946;2023-12-20T03:04:43;8.00;;;2.17;;
17596;SDS011;8917;50.942;6.946;2023-12-20T03:07:10;5.97;;;2.77;;
17596;SDS011;8917;50.942;6.946;2023-12-20T03:09:38;5.00;;;2.20;;
17596;SDS011;8917;50.942;6.946;2023-12-20T03:12:05;7.40;;;2.23;;
17596;SDS011;8917;50.942;6.946;2023-12-20T03:14:33;4.53;;;2.20;;
17596;SDS011;8917;50.942;6.946;2023-12-20T03:17:00;10.57;;;3.13;;
17596;SDS011;8917;50.942;6.946;2023-12-20T03:19:27;8.83;;;2.40;;
17596;SDS011;8917;50.942;6.946;2023-12-20T03:21:54;7.93;;;2.97;;
17596;SDS011;8917;50.942;6.946;2023-12-20T03:24:21;8.17;;;2.70;;
17596;SDS011;8917;50.942;6.946;2023-12-20T03:26:48;6.63;;;2.73;;
17596;SDS011;8917;50.942;6.946;2023-12-20T03:29:15;7.20;;;2.43;;
17596;SDS011;8917;50.942;6.946;2023-12-20T03:31:43;5.67;;;2.30;;
17596;SDS011;8917;50.942;6.946;2023-12-20T03:34:10;6.30;;;2.10;;
17596;SDS011;8917;50.942;6.946;2023-12-20T03:36:37;6.50;;;2.83;;
17596;SDS011;8917;50.942;6.946;2023-12-20T03:39:05;8.00;;;2.57;;
17596;SDS011;8917;50.942;6.946;2023-12-20T03:41:32;9.13;;;2.30;;
17596;SDS011;8917;50.942;6.946;2023-12-20T03:43:59;7.83;;;2.40;;
17596;SDS011;8917;50.942;6.946;2023-12-20T03:46:26;9.13;;;2.23;;
17596;SDS011;8917;50.942;6.946;2023-12-20T03:48:54;9.00;;;2.33;;
17596;SDS011;8917;50.942;6.946;2023-12-20T03:51:21;8.67;;;3.13;;
17596;SDS011;8917;50.942;6.946;2023-12-20T03:53:48;7.90;;;2.20;;
17596;SDS011;8917;50.942;6.946;2023-12-20T03:56:15;9.73;;;2.47;;
17596;SDS011;8917;50.942;6.946;2023-12-20T03:58:42;8.87;;;2.77;;
17596;SDS011;8917;50.942;6.946;2023-12-20T04:01:09;11.50;;;2.40;;
17596;SDS011;8917;50.942;6.946;2023-12-20T04:03:38;7.60;;;2.77;;
17596;SDS011;8917;50.942;6.946;2023-12-20T04:06:06;10.17;;;2.67;;
17596;SDS011;8917;50.942;6.946;2023-12-20T04:08:33;6.03;;;2.33;;
17596;SDS011;8917;50.942;6.946;2023-12-20T04:11:00;11.10;;;3.23;;
17596;SDS011;8917;50.942;6.946;2023-12-20T04:13:27;9.93;;;2.60;;
17596;SDS011;8917;50.942;6.946;2023-12-20T04:15:54;7.57;;;2.37;;
17596;SDS011;8917;50.942;6.946;2023-12-20T04:18:21;8.33;;;2.70;;
17596;SDS011;8917;50.942;6.946;2023-12-20T04:20:48;10.73;;;2.60;;
17596;SDS011;8917;50.942;6.946;2023-12-20T04:23:18;8.07;;;2.43;;
17596;SDS011;8917;50.942;6.946;2023-12-20T04:25:45;7.73;;;2.40;;
17596;SDS011;8917;50.942;6.946;2023-12-20T04:28:12;8.50;;;3.07;;
17596;SDS011;8917;50.942;6.946;2023-12-20T04:30:39;9.67;;;2.57;;
17596;SDS011;8917;50.942;6.946;2023-12-20T04:33:06;8.37;;;2.63;;
17596;SDS011;8917;50.942;6.946;2023-12-20T04:35:33;11.43;;;2.83;;
17596;SDS011;8917;50.942;6.946;2023-12-20T04:38:00;6.17;;;2.77;;
17596;SDS011;8917;50.942;6.946;2023-12-20T04:40:28;5.57;;;2.60;;
17596;SDS011;8917;50.942;6.946;2023-12-20T04:42:55;8.07;;;2.87;;
17596;SDS011;8917;50.942;6.946;2023-12-20T04:45:22;7.27;;;3.03;;
17596;SDS011;8917;50.942;6.946;2023-12-20T04:47:50;11.10;;;2.80;;
17596;SDS011;8917;50.942;6.946;2023-12-20T04:50:17;10.90;;;3.17;;
17596;SDS011;8917;50.942;6.946;2023-12-20T04:52:44;10.53;;;2.90;;
17596;SDS011;8917;50.942;6.946;2023-12-20T04:55:12;8.93;;;3.03;;
17596;SDS011;8917;50.942;6.946;2023-12-20T04:57:40;10.47;;;2.90;;
17596;SDS011;8917;50.942;6.946;2023-12-20T05:00:08;7.73;;;2.90;;
17596;SDS011;8917;50.942;6.946;2023-12-20T05:02:35;13.43;;;3.03;;
17596;SDS011;8917;50.942;6.946;2023-12-20T05:05:02;8.53;;;2.90;;
17596;SDS011;8917;50.942;6.946;2023-12-20T05:07:29;6.40;;;2.90;;
17596;SDS011;8917;50.942;6.946;2023-12-20T05:09:56;11.17;;;3.03;;
17596;SDS011;8917;50.942;6.946;2023-12-20T05:12:23;8.37;;;2.83;;
17596;SDS011;8917;50.942;6.946;2023-12-20T05:14:51;9.53;;;2.67;;
17596;SDS011;8917;50.942;6.946;2023-12-20T05:17:18;8.63;;;3.10;;
17596;SDS011;8917;50.942;6.946;2023-12-20T05:19:46;9.37;;;3.13;;
17596;SDS011;8917;50.942;6.946;2023-12-20T05:22:13;7.23;;;2.40;;
17596;SDS011;8917;50.942;6.946;2023-12-20T05:24:40;10.13;;;3.20;;
17596;SDS011;8917;50.942;6.946;2023-12-20T05:27:07;7.60;;;2.77;;
17596;SDS011;8917;50.942;6.946;2023-12-20T05:29:34;8.20;;;3.13;;
17596;SDS011;8917;50.942;6.946;2023-12-20T05:32:02;9.93;;;3.33;;
17596;SDS011;8917;50.942;6.946;2023-12-20T05:34:30;8.73;;;2.90;;
17596;SDS011;8917;50.942;6.946;2023-12-20T05:36:57;8.40;;;3.40;;
17596;SDS011;8917;50.942;6.946;2023-12-20T05:39:24;8.17;;;3.13;;
17596;SDS011;8917;50.942;6.946;2023-12-20T05:41:51;6.80;;;3.00;;
17596;SDS011;8917;50.942;6.946;2023-12-20T05:44:18;9.13;;;3.00;;
17596;SDS011;8917;50.942;6.946;2023-12-20T05:46:45;9.63;;;3.00;;
17596;SDS011;8917;50.942;6.946;2023-12-20T05:49:13;7.43;;;2.93;;
17596;SDS011;8917;50.942;6.946;2023-12-20T05:51:40;6.13;;;2.87;;
17596;SDS011;8917;50.942;6.946;2023-12-20T05:54:07;9.43;;;3.10;;
17596;SDS011;8917;50.942;6.946;2023-12-20T05:56:35;13.43;;;3.40;;
17596;SDS011;8917;50.942;6.946;2023-12-20T05:59:02;12.17;;;3.47;;
17596;SDS011;8917;50.942;6.946;2023-12-20T06:01:29;7.93;;;2.67;;
17596;SDS011;8917;50.942;6.946;2023-12-20T06:03:56;8.70;;;2.70;;
17596;SDS011;8917;50.942;6.946;2023-12-20T06:06:24;9.57;;;3.00;;
17596;SDS011;8917;50.942;6.946;2023-12-20T06:08:51;9.43;;;3.83;;
17596;SDS011;8917;50.942;6.946;2023-12-20T06:11:18;9.60;;;3.20;;
17596;SDS011;8917;50.942;6.946;2023-12-20T06:13:44;10.40;;;3.07;;
17596;SDS011;8917;50.942;6.946;2023-12-20T06:16:11;7.03;;;2.90;;
17596;SDS011;8917;50.942;6.946;2023-12-20T06:18:38;9.47;;;3.10;;
17596;SDS011;8917;50.942;6.946;2023-12-20T06:21:06;8.27;;;2.90;;
17596;SDS011;8917;50.942;6.946;2023-12-20T06:23:35;9.43;;;3.23;;
17596;SDS011;8917;50.942;6.946;2023-12-20T06:26:02;10.30;;;3.37;;
17596;SDS011;8917;50.942;6.946;2023-12-20T06:28:29;8.63;;;3.10;;
17596;SDS011;8917;50.942;6.946;2023-12-20T06:30:56;9.50;;;2.77;;
17596;SDS011;8917;50.942;6.946;2023-12-20T06:33:23;9.17;;;3.10;;
17596;SDS011;8917;50.942;6.946;2023-12-20T06:35:50;10.10;;;3.33;;
17596;SDS011;8917;50.942;6.946;2023-12-20T06:38:17;8.73;;;2.73;;
17596;SDS011;8917;50.942;6.946;2023-12-20T06:40:46;11.50;;;3.10;;
17596;SDS011;8917;50.942;6.946;2023-12-20T06:43:13;10.70;;;3.37;;
17596;SDS011;8917;50.942;6.946;2023-12-20T06:45:40;12.00;;;2.90;;
17596;SDS011;8917;50.942;6.946;2023-12-20T06:48:07;9.60;;;3.23;;
17596;SDS011;8917;50.942;6.946;2023-12-20T06:50:36;7.90;;;3.13;;
17596;SDS011;8917;50.942;6.946;2023-12-20T06:53:05;12.07;;;3.33;;
17596;SDS011;8917;50.942;6.946;2023-12-20T06:55:32;11.03;;;3.27;;
17596;SDS011;8917;50.942;6.946;2023-12-20T06:58:01;8.87;;;3.23;;
17596;SDS011;8917;50.942;6.946;2023-12-20T07:00:28;14.53;;;4.03;;
17596;SDS011;8917;50.942;6.946;2023-12-20T07:02:56;10.10;;;3.10;;
17596;SDS011;8917;50.942;6.946;2023-12-20T07:05:23;10.80;;;3.83;;
17596;SDS011;8917;50.942;6.946;2023-12-20T07:07:50;11.13;;;3.43;;
17596;SDS011;8917;50.942;6.946;2023-12-20T07:10:17;11.30;;;2.90;;
17596;SDS011;8917;50.942;6.946;2023-12-20T07:12:44;10.60;;;3.80;;
17596;SDS011;8917;50.942;6.946;2023-12-20T07:15:12;8.70;;;3.10;;
17596;SDS011;8917;50.942;6.946;2023-12-20T07:17:39;7.80;;;3.13;;
17596;SDS011;8917;50.942;6.946;2023-12-20T07:20:07;8.50;;;3.20;;
17596;SDS011;8917;50.942;6.946;2023-12-20T07:22:36;13.00;;;3.33;;
17596;SDS011;8917;50.942;6.946;2023-12-20T07:25:03;9.80;;;2.83;;
17596;SDS011;8917;50.942;6.946;2023-12-20T07:27:30;6.43;;;2.80;;
17596;SDS011;8917;50.942;6.946;2023-12-20T07:29:57;8.73;;;3.10;;
17596;SDS011;8917;50.942;6.946;2023-12-20T07:32:25;10.63;;;3.60;;
17596;SDS011;8917;50.942;6.946;2023-12-20T07:34:52;10.37;;;3.33;;
17596;SDS011;8917;50.942;6.946;2023-12-20T07:37:20;11.27;;;3.43;;
17596;SDS011;8917;50.942;6.946;2023-12-20T07:39:46;9.73;;;3.23;;
17596;SDS011;8917;50.942;6.946;2023-12-20T07:42:13;8.07;;;3.30;;
17596;SDS011;8917;50.942;6.946;2023-12-20T07:44:40;12.43;;;4.07;;
17596;SDS011;8917;50.942;6.946;2023-12-20T07:47:07;11.80;;;3.43;;
17596;SDS011;8917;50.942;6.946;2023-12-20T07:49:35;10.67;;;4.00;;
17596;SDS011;8917;50.942;6.946;2023-12-20T07:52:02;9.87;;;3.40;;
17596;SDS011;8917;50.942;6.946;2023-12-20T07:54:30;9.30;;;3.33;;
17596;SDS011;8917;50.942;6.946;2023-12-20T07:56:59;13.27;;;3.70;;
17596;SDS011;8917;50.942;6.946;2023-12-20T07:59:26;15.17;;;3.90;;
17596;SDS011;8917;50.942;6.946;2023-12-20T08:01:53;13.90;;;3.97;;
17596;SDS011;8917;50.942;6.946;2023-12-20T08:04:21;14.10;;;3.77;;
17596;SDS011;8917;50.942;6.946;2023-12-20T08:06:50;12.80;;;4.50;;
17596;SDS011;8917;50.942;6.946;2023-12-20T08:09:17;10.30;;;3.77;;
17596;SDS011;8917;50.942;6.946;2023-12-20T08:11:44;10.73;;;3.40;;
17596;SDS011;8917;50.942;6.946;2023-12-20T08:14:11;8.57;;;3.60;;
17596;SDS011;8917;50.942;6.946;2023-12-20T08:16:38;11.80;;;3.70;;
17596;SDS011;8917;50.942;6.946;2023-12-20T08:19:05;11.13;;;3.83;;
17596;SDS011;8917;50.942;6.946;2023-12-20T08:21:32;12.33;;;3.73;;
17596;SDS011;8917;50.942;6.946;2023-12-20T08:24:01;12.10;;;4.13;;
17596;SDS011;8917;50.942;6.946;2023-12-20T08:26:29;9.80;;;3.83;;
17596;SDS011;8917;50.942;6.946;2023-12-20T08:28:56;8.67;;;3.23;;
17596;SDS011;8917;50.942;6.946;2023-12-20T08:31:23;12.13;;;3.43;;
17596;SDS011;8917;50.942;6.946;2023-12-20T08:33:51;10.20;;;3.60;;
17596;SDS011;8917;50.942;6.946;2023-12-20T08:36:18;10.40;;;3.63;;
17596;SDS011;8917;50.942;6.946;2023-12-20T08:38:46;10.73;;;3.30;;
17596;SDS011;8917;50.942;6.946;2023-12-20T08:41:15;9.10;;;3.50;;
17596;SDS011;8917;50.942;6.946;2023-12-20T08:43:42;11.83;;;4.00;;
17596;SDS011;8917;50.942;6.946;2023-12-20T08:46:09;10.90;;;3.40;;
17596;SDS011;8917;50.942;6.946;2023-12-20T08:48:36;9.70;;;3.67;;
17596;SDS011;8917;50.942;6.946;2023-12-20T08:51:03;11.00;;;3.63;;
17596;SDS011;8917;50.942;6.946;2023-12-20T08:53:32;6.03;;;2.83;;
17596;SDS011;8917;50.942;6.946;2023-12-20T08:55:59;7.53;;;3.10;;
17596;SDS011;8917;50.942;6.946;2023-12-20T08:58:28;9.07;;;3.10;;
17596;SDS011;8917;50.942;6.946;2023-12-20T09:00:55;11.47;;;4.03;;
17596;SDS011;8917;50.942;6.946;2023-12-20T09:03:23;8.93;;;2.90;;
17596;SDS011;8917;50.942;6.946;2023-12-20T09:05:50;13.03;;;3.13;;
17596;SDS011;8917;50.942;6.946;2023-12-20T09:08:17;9.53;;;3.10;;
17596;SDS011;8917;50.942;6.946;2023-12-20T09:10:44;11.50;;;3.70;;
17596;SDS011;8917;50.942;6.946;2023-12-20T09:13:11;8.17;;;3.07;;
17596;SDS011;8917;50.942;6.946;2023-12-20T09:15:40;13.40;;;3.93;;
17596;SDS011;8917;50.942;6.946;2023-12-20T09:18:06;12.53;;;3.53;;
17596;SDS011;8917;50.942;6.946;2023-12-20T09:20:34;10.93;;;3.50;;
17596;SDS011;8917;50.942;6.946;2023-12-20T09:23:01;7.73;;;2.73;;
17596;SDS011;8917;50.942;6.946;2023-12-20T09:25:28;11.73;;;3.73;;
17596;SDS011;8917;50.942;6.946;2023-12-20T09:27:55;8.20;;;3.27;;
17596;SDS011;8917;50.942;6.946;2023-12-20T09:30:22;9.80;;;3.43;;
17596;SDS011;8917;50.942;6.946;2023-12-20T09:32:51;10.70;;;3.77;;
17596;SDS011;8917;50.942;6.946;2023-12-20T09:35:19;9.03;;;3.50;;
17596;SDS011;8917;50.942;6.946;2023-12-20T09:37:45;8.43;;;3.27;;
17596;SDS011;8917;50.942;6.946;2023-12-20T09:40:17;9.87;;;3.07;;
17596;SDS011;8917;50.942;6.946;2023-12-20T09:42:47;9.97;;;3.20;;
17596;SDS011;8917;50.942;6.946;2023-12-20T09:45:22;10.60;;;3.00;;
17596;SDS011;8917;50.942;6.946;2023-12-20T09:47:49;9.67;;;3.47;;
17596;SDS011;8917;50.942;6.946;2023-12-20T09:50:18;14.87;;;3.87;;
17596;SDS011;8917;50.942;6.946;2023-12-20T09:52:47;11.17;;;3.40;;
17596;SDS011;8917;50.942;6.946;2023-12-20T09:55:17;9.67;;;3.20;;
17596;SDS011;8917;50.942;6.946;2023-12-20T09:57:45;8.37;;;3.23;;
17596;SDS011;8917;50.942;6.946;2023-12-20T10:00:12;9.87;;;3.20;;
17596;SDS011;8917;50.942;6.946;2023-12-20T10:02:41;7.80;;;3.07;;
17596;SDS011;8917;50.942;6.946;2023-12-20T10:05:15;10.27;;;2.70;;
17596;SDS011;8917;50.942;6.946;2023-12-20T10:07:45;11.93;;;3.20;;
17596;SDS011;8917;50.942;6.946;2023-12-20T10:10:13;11.20;;;3.33;;
17596;SDS011;8917;50.942;6.946;2023-12-20T10:12:40;7.30;;;3.10;;
17596;SDS011;8917;50.942;6.946;2023-12-20T10:15:26;10.07;;;3.00;;
17596;SDS011;8917;50.942;6.946;2023-12-20T10:17:53;12.13;;;3.50;;
17596;SDS011;8917;50.942;6.946;2023-12-20T10:20:21;9.50;;;3.37;;
17596;SDS011;8917;50.942;6.946;2023-12-20T10:22:49;8.80;;;2.93;;
17596;SDS011;8917;50.942;6.946;2023-12-20T10:25:18;11.00;;;3.07;;
17596;SDS011;8917;50.942;6.946;2023-12-20T10:27:46;10.03;;;3.60;;
17596;SDS011;8917;50.942;6.946;2023-12-20T10:30:13;9.17;;;4.77;;
17596;SDS011;8917;50.942;6.946;2023-12-20T10:32:40;11.40;;;3.07;;
17596;SDS011;8917;50.942;6.946;2023-12-20T10:35:08;8.50;;;3.03;;
17596;SDS011;8917;50.942;6.946;2023-12-20T10:37:35;9.40;;;3.17;;
17596;SDS011;8917;50.942;6.946;2023-12-20T10:40:04;10.97;;;3.03;;
17596;SDS011;8917;50.942;6.946;2023-12-20T10:42:32;12.23;;;3.27;;
17596;SDS011;8917;50.942;6.946;2023-12-20T10:45:01;8.83;;;2.60;;
17596;SDS011;8917;50.942;6.946;2023-12-20T10:47:28;7.37;;;2.60;;
17596;SDS011;8917;50.942;6.946;2023-12-20T10:49:57;7.50;;;2.70;;
17596;SDS011;8917;50.942;6.946;2023-12-20T10:52:26;9.23;;;2.87;;
17596;SDS011;8917;50.942;6.946;2023-12-20T10:54:55;6.80;;;3.13;;
17596;SDS011;8917;50.942;6.946;2023-12-20T10:57:24;8.37;;;2.83;;
17596;SDS011;8917;50.942;6.946;2023-12-20T10:59:54;11.27;;;3.40;;
17596;SDS011;8917;50.942;6.946;2023-12-20T11:02:22;8.57;;;2.67;;
17596;SDS011;8917;50.942;6.946;2023-12-20T11:04:50;10.03;;;2.83;;
17596;SDS011;8917;50.942;6.946;2023-12-20T11:07:23;10.13;;;3.10;;
17596;SDS011;8917;50.942;6.946;2023-12-20T11:09:56;10.00;;;3.07;;
17596;SDS011;8917;50.942;6.946;2023-12-20T11:12:32;10.30;;;3.00;;
17596;SDS011;8917;50.942;6.946;2023-12-20T11:15:03;8.10;;;2.87;;
17596;SDS011;8917;50.942;6.946;2023-12-20T11:17:31;8.87;;;3.30;;
17596;SDS011;8917;50.942;6.946;2023-12-20T11:20:05;8.07;;;2.83;;
17596;SDS011;8917;50.942;6.946;2023-12-20T11:22:35;10.07;;;3.00;;
17596;SDS011;8917;50.942;6.946;2023-12-20T11:25:04;8.27;;;2.80;;
17596;SDS011;8917;50.942;6.946;2023-12-20T11:27:34;13.43;;;3.43;;
17596;SDS011;8917;50.942;6.946;2023-12-20T11:30:02;6.83;;;2.90;;
17596;SDS011;8917;50.942;6.946;2023-12-20T11:32:33;9.53;;;2.97;;
17596;SDS011;8917;50.942;6.946;2023-12-20T11:35:01;10.57;;;3.40;;
17596;SDS011;8917;50.942;6.946;2023-12-20T11:37:51;12.13;;;3.20;;
17596;SDS011;8917;50.942;6.946;2023-12-20T11:40:18;9.17;;;2.80;;
17596;SDS011;8917;50.942;6.946;2023-12-20T11:42:50;12.43;;;2.90;;
17596;SDS011;8917;50.942;6.946;2023-12-20T11:45:18;8.37;;;2.80;;
17596;SDS011;8917;50.942;6.946;2023-12-20T11:47:47;7.20;;;3.00;;
17596;SDS011;8917;50.942;6.946;2023-12-20T11:50:16;12.37;;;3.93;;
17596;SDS011;8917;50.942;6.946;2023-12-20T11:52:43;5.80;;;2.40;;
17596;SDS011;8917;50.942;6.946;2023-12-20T11:55:10;8.93;;;2.60;;
17596;SDS011;8917;50.942;6.946;2023-12-20T11:57:37;8.17;;;2.57;;
17596;SDS011;8917;50.942;6.946;2023-12-20T12:00:06;7.43;;;2.80;;
17596;SDS011;8917;50.942;6.946;2023-12-20T12:02:33;8.97;;;2.70;;
17596;SDS011;8917;50.942;6.946;2023-12-20T12:05:00;8.13;;;3.03;;
17596;SDS011;8917;50.942;6.946;2023-12-20T12:07:30;8.73;;;2.60;;
17596;SDS011;8917;50.942;6.946;2023-12-20T12:09:57;10.37;;;3.60;;
17596;SDS011;8917;50.942;6.946;2023-12-20T12:12:24;11.70;;;2.80;;
17596;SDS011;8917;50.942;6.946;2023-12-20T12:14:52;11.17;;;3.60;;
17596;SDS011;8917;50.942;6.946;2023-12-20T12:17:20;10.20;;;3.07;;
17596;SDS011;8917;50.942;6.946;2023-12-20T12:19:47;10.23;;;3.30;;
17596;SDS011;8917;50.942;6.946;2023-12-20T12:22:14;11.23;;;3.37;;
17596;SDS011;8917;50.942;6.946;2023-12-20T12:24:43;8.43;;;3.57;;
17596;SDS011;8917;50.942;6.946;2023-12-20T12:27:11;8.03;;;3.17;;
17596;SDS011;8917;50.942;6.946;2023-12-20T12:29:39;8.00;;;2.90;;
17596;SDS011;8917;50.942;6.946;2023-12-20T12:32:07;9.07;;;2.83;;
17596;SDS011;8917;50.942;6.946;2023-12-20T12:34:36;11.03;;;3.03;;
17596;SDS011;8917;50.942;6.946;2023-12-20T12:37:03;7.87;;;2.97;;
17596;SDS011;8917;50.942;6.946;2023-12-20T12:39:30;8.23;;;2.80;;
17596;SDS011;8917;50.942;6.946;2023-12-20T12:41:57;11.53;;;3.03;;
17596;SDS011;8917;50.942;6.946;2023-12-20T12:44:24;8.57;;;2.93;;
17596;SDS011;8917;50.942;6.946;2023-12-20T12:46:51;7.23;;;3.13;;
17596;SDS011;8917;50.942;6.946;2023-12-20T12:49:19;8.63;;;3.00;;
17596;SDS011;8917;50.942;6.946;2023-12-20T12:51:48;6.93;;;3.40;;
17596;SDS011;8917;50.942;6.946;2023-12-20T12:54:15;10.40;;;2.50;;
17596;SDS011;8917;50.942;6.946;2023-12-20T12:56:43;10.07;;;2.90;;
17596;SDS011;8917;50.942;6.946;2023-12-20T12:59:12;8.90;;;2.80;;
17596;SDS011;8917;50.942;6.946;2023-12-20T13:01:39;11.50;;;2.93;;
17596;SDS011;8917;50.942;6.946;2023-12-20T13:04:05;10.40;;;3.33;;
17596;SDS011;8917;50.942;6.946;2023-12-20T13:06:35;5.97;;;3.17;;
17596;SDS011;8917;50.942;6.946;2023-12-20T13:09:04;9.67;;;3.17;;
17596;SDS011;8917;50.942;6.946;2023-12-20T13:11:31;5.97;;;2.93;;
17596;SDS011;8917;50.942;6.946;2023-12-20T13:13:58;9.13;;;2.93;;
17596;SDS011;8917;50.942;6.946;2023-12-20T13:16:25;14.53;;;4.30;;
17596;SDS011;8917;50.942;6.946;2023-12-20T13:18:52;6.93;;;3.80;;
17596;SDS011;8917;50.942;6.946;2023-12-20T13:21:19;9.63;;;3.00;;
17596;SDS011;8917;50.942;6.946;2023-12-20T13:23:46;13.27;;;3.63;;
17596;SDS011;8917;50.942;6.946;2023-12-20T13:26:14;9.63;;;3.20;;
17596;SDS011;8917;50.942;6.946;2023-12-20T13:28:42;13.47;;;3.30;;
17596;SDS011;8917;50.942;6.946;2023-12-20T13:31:09;8.37;;;3.73;;
17596;SDS011;8917;50.942;6.946;2023-12-20T13:33:38;9.37;;;3.10;;
17596;SDS011;8917;50.942;6.946;2023-12-20T13:36:05;7.93;;;3.17;;
17596;SDS011;8917;50.942;6.946;2023-12-20T13:38:33;9.47;;;3.27;;
17596;SDS011;8917;50.942;6.946;2023-12-20T13:41:00;9.63;;;2.80;;
17596;SDS011;8917;50.942;6.946;2023-12-20T13:43:28;10.63;;;3.30;;
17596;SDS011;8917;50.942;6.946;2023-12-20T13:45:55;8.00;;;3.27;;
17596;SDS011;8917;50.942;6.946;2023-12-20T13:48:22;7.53;;;3.60;;
17596;SDS011;8917;50.942;6.946;2023-12-20T13:50:49;9.60;;;3.47;;
17596;SDS011;8917;50.942;6.946;2023-12-20T13:53:16;9.43;;;2.90;;
17596;SDS011;8917;50.942;6.946;2023-12-20T13:55:44;7.70;;;2.70;;
17596;SDS011;8917;50.942;6.946;2023-12-20T13:58:11;5.03;;;2.50;;
17596;SDS011;8917;50.942;6.946;2023-12-20T14:00:40;9.20;;;3.40;;
17596;SDS011;8917;50.942;6.946;2023-12-20T14:03:07;8.43;;;3.50;;
17596;SDS011;8917;50.942;6.946;2023-12-20T14:05:35;5.67;;;2.50;;
17596;SDS011;8917;50.942;6.946;2023-12-20T14:08:02;7.33;;;3.20;;
17596;SDS011;8917;50.942;6.946;2023-12-20T14:10:29;6.77;;;2.87;;
17596;SDS011;8917;50.942;6.946;2023-12-20T14:12:56;9.80;;;3.27;;
17596;SDS011;8917;50.942;6.946;2023-12-20T14:15:23;8.33;;;3.27;;
17596;SDS011;8917;50.942;6.946;2023-12-20T14:17:52;9.67;;;3.17;;
17596;SDS011;8917;50.942;6.946;2023-12-20T14:20:19;7.07;;;3.03;;
17596;SDS011;8917;50.942;6.946;2023-12-20T14:22:46;7.13;;;3.03;;
17596;SDS011;8917;50.942;6.946;2023-12-20T14:25:13;7.97;;;2.93;;
17596;SDS011;8917;50.942;6.946;2023-12-20T14:27:41;8.87;;;2.57;;
17596;SDS011;8917;50.942;6.946;2023-12-20T14:30:09;12.67;;;3.10;;
17596;SDS011;8917;50.942;6.946;2023-12-20T14:32:39;10.40;;;2.93;;
17596;SDS011;8917;50.942;6.946;2023-12-20T14:35:08;6.57;;;3.03;;
17596;SDS011;8917;50.942;6.946;2023-12-20T14:37:35;9.57;;;3.00;;
17596;SDS011;8917;50.942;6.946;2023-12-20T14:40:04;9.10;;;2.60;;
17596;SDS011;8917;50.942;6.946;2023-12-20T14:42:35;10.30;;;3.10;;
17596;SDS011;8917;50.942;6.946;2023-12-20T14:45:02;6.30;;;2.60;;
17596;SDS011;8917;50.942;6.946;2023-12-20T14:47:30;7.67;;;2.90;;
17596;SDS011;8917;50.942;6.946;2023-12-20T14:49:56;6.53;;;2.90;;
17596;SDS011;8917;50.942;6.946;2023-12-20T14:52:25;7.17;;;2.70;;
17596;SDS011;8917;50.942;6.946;2023-12-20T14:54:51;8.80;;;3.10;;
17596;SDS011;8917;50.942;6.946;2023-12-20T14:57:18;7.30;;;2.57;;
17596;SDS011;8917;50.942;6.946;2023-12-20T14:59:45;11.00;;;3.23;;